Terminal Aerodrome Forecast
Issued by NWS

Home | Current Version | Previous Version | Graphics & Text | Print | Product List | Glossary On
Versions: 1 2 3 4 5 6 7 8 9 10 11 12 13 14 15 16 17 18 19 20 21 22 23 24 25 26 27 28 29 30 31 32 33 34 35 36 37 38 39 40 41 42
000
FTUS43 KGRB 311100 AAA
TAFRHI
TAF AMD
KRHI 311158Z 3112/0112 VRB03KT 1 1/2SM BR SCT040 BKN090
      TEMPO 3112/3114 1/4SM FG VV002
     FM311500 26010G17KT P6SM BKN040
     FM312100 32007KT P6SM SCT040
     FM010300 02004KT P6SM SCT150
     FM011000 11005KT P6SM BKN090=

USA.gov is the U.S. government's official web portal to all federal, state and local government web resources and services.